Biggsville, IL

6:18 AM CST on March 01, 2015 (GMT -0600)
Kirkwood | Change Station
CLOSE
Current Station
Personal Weather Station
Location: Kirkwood, IL
Elevation: 732 ft
Nearby Weather Stations

Elev 732 ft 40.85 °N, 90.75 °W | Updated 60 seconds ago

Overcast
Overcast
19.0 °F
Feels Like 19 °F
N
1.0
Wind Variable Wind from ESE
Gusts 2.0 mph

Today
High -- | Low -- °F
--% Chance of Precip.
Yesterday
High -- | Low -- °F
Precip. -- in
6:37 AM 5:54 PM
Waxing Gibbous, 84% visible
Pressure 30.40 in
Visibility 5.0 miles
Clouds Few 3700 ft
Mostly Cloudy 5000 ft
Overcast 6500 ft
Windchill 19 °F
Dew Point 17 °F
Humidity 92%
Rainfall 0.00 in
Snow Depth Not available.
UV 0 out of 12
Pollen .50 out of 12
Air Quality Not available.
Flu Activity Not available.
METAR KBRL 011153Z AUTO 00000KT 5SM BR FEW037 BKN050 OVC065 M07/M08 A3036 RMK AO2 SLP294 T10671083 11067 21078 55003

More Conditions Fewer Conditions

Pressure 30.40 in
Visibility 5.0 miles
Clouds Few 3700 ft
Mostly Cloudy 5000 ft
Overcast 6500 ft
Windchill 19 °F
Dew Point 17 °F
Humidity 92%
Rainfall 0.00 in
Snow Depth Not available.
UV 0 out of 12
Pollen .50 out of 12
Air Quality Not available.
Flu Activity Not available.
METAR KBRL 011153Z AUTO 00000KT 5SM BR FEW037 BKN050 OVC065 M07/M08 A3036 RMK AO2 SLP294 T10671083 11067 21078 55003

More Conditions Fewer Conditions

10-Day Weather Forecast

Almanac

Astronomy

Mar. 01, 2015 Rise Set
Actual Time
Civil Twilight
Nautical Twilight
Astronomical Twilight
Moon
Length of Visible Light
Length of Day
Tomorrow will be .
, % of the Moon is Illuminated

Today's Extremes

State Highs State Lows

Community

WunderPhotos

Upload Photos

1,801,365 photos uploaded!

WunderBlogs® & News

Nearby

Air Quality

  Air Quality AQ Index Pollutant
Not available.

Snow Depth

Station Depth Elevation

Earthquake Activity

City Distance Mag. Time & Date
Minimum magnitude displayed is 2.5.

Coastal Water Temperatures

Place Temperature

Nearby Weather Stations